Time;durP1;ratioP1;P1;durP2;ratioP2;P2;SDS_P1;SDS_P2;PMS_P1;PMS_P2;Temp;Humidity;BMP_temperature;BMP_pressure;BME280_temperature;BME280_humidity;BME280_pressure;Samples;Min_cycle;Max_cycle;Signal;HPM_P1;HPM_P2
2022/01/24 00:01:12;;;;;;;11.23;5.53;;;;;;;-8.10;86.18;98951.53;5133883;27;20759;-68
2022/01/24 00:03:39;;;;;;;7.77;4.17;;;;;;;-8.16;86.71;98948.03;5133512;27;20292;-69
2022/01/24 00:06:10;;;;;;;12.87;5.63;;;;;;;-8.13;87.36;98948.09;5115966;27;20293;-69
2022/01/24 00:08:37;;;;;;;15.93;8.53;;;;;;;-8.21;87.39;98952.16;5133825;27;20276;-69
2022/01/24 00:11:08;;;;;;;13.37;5.57;;;;;;;-8.24;87.54;98957.19;5134970;27;20292;-68
2022/01/24 00:16:28;;;;;;;11.77;5.50;;;;;;;-8.50;88.64;98963.34;5115952;27;20280;-68
2022/01/24 00:27:09;;;;;;;14.57;7.10;;;;;;;-8.77;90.07;98966.06;5133773;27;20368;-68
2022/01/24 00:29:36;;;;;;;19.20;7.63;;;;;;;-8.75;90.49;98974.63;5133583;27;20649;-68
2022/01/24 00:32:07;;;;;;;12.40;5.93;;;;;;;-8.75;90.68;98968.66;5133188;27;20338;-67
2022/01/24 00:34:34;;;;;;;17.47;7.10;;;;;;;-8.81;90.63;98958.28;5132937;27;20292;-67
2022/01/24 00:37:01;;;;;;;16.87;7.23;;;;;;;-8.89;91.15;98963.19;5133698;27;20316;-68
2022/01/24 00:39:29;;;;;;;16.60;8.00;;;;;;;-8.91;91.40;98964.81;5134347;27;20288;-68
2022/01/24 00:42:07;;;;;;;13.87;6.37;;;;;;;-8.91;92.12;98962.28;5132966;27;20334;-69
2022/01/24 00:44:50;;;;;;;15.93;6.90;;;;;;;-8.89;92.41;98972.50;5133206;27;20284;-68
2022/01/24 00:47:25;;;;;;;16.70;6.88;;;;;;;-8.95;91.94;98964.72;5133358;27;20337;-69
2022/01/24 00:52:59;;;;;;;14.93;6.63;;;;;;;-9.00;92.28;98972.25;5132185;27;20055;-67
2022/01/24 00:55:27;;;;;;;14.63;6.83;;;;;;;-8.96;92.91;98981.69;5131938;27;20772;-68
2022/01/24 00:57:54;;;;;;;15.47;7.37;;;;;;;-8.80;92.74;98972.78;5133102;27;20358;-66
2022/01/24 01:00:21;;;;;;;15.63;6.33;;;;;;;-8.66;92.33;98974.84;5133073;27;20652;-65
2022/01/24 01:02:49;;;;;;;15.07;6.57;;;;;;;-8.59;92.38;98968.22;5132416;27;20697;-66
2022/01/24 01:05:33;;;;;;;19.07;7.20;;;;;;;-8.52;91.54;98977.75;5132844;27;20371;-65
2022/01/24 01:18:04;;;;;;;19.45;7.15;;;;;;;-8.49;91.46;98978.69;5133086;27;20285;-64
2022/01/24 01:19:04;;;;;;;18.83;7.73;;;;;;;-8.49;90.39;98986.34;5114591;27;21842;-66
2022/01/24 01:21:31;;;;;;;19.57;8.07;;;;;;;-8.44;90.85;99000.06;5132460;27;20399;-66
2022/01/24 01:23:59;;;;;;;17.93;6.30;;;;;;;-8.37;91.31;98998.53;5133161;27;20637;-66
2022/01/24 01:26:32;;;;;;;15.77;7.10;;;;;;;-8.39;91.01;99001.03;5132847;27;20312;-66
2022/01/24 01:29:03;;;;;;;17.60;7.72;;;;;;;-8.40;91.60;99001.88;5132678;27;20375;-65
2022/01/24 01:31:40;;;;;;;16.27;6.73;;;;;;;-8.46;91.03;99000.88;5132363;27;20039;-65
2022/01/24 01:34:22;;;;;;;15.30;6.53;;;;;;;-8.52;91.78;98996.47;5132577;27;20780;-66
2022/01/24 01:40:05;;;;;;;16.70;6.53;;;;;;;-8.63;92.19;99000.44;5113538;27;20289;-65
2022/01/24 01:53:54;;;;;;;21.60;6.83;;;;;;;-8.59;94.23;98989.47;5131889;27;20737;-65
2022/01/24 01:56:21;;;;;;;17.37;6.67;;;;;;;-8.53;94.10;98982.00;5131884;27;20287;-65
2022/01/24 01:58:48;;;;;;;16.67;7.87;;;;;;;-8.48;94.08;98988.06;5132223;27;20375;-65
2022/01/24 02:01:15;;;;;;;18.13;7.90;;;;;;;-8.46;93.95;98986.44;5132279;27;20284;-66
2022/01/24 02:03:42;;;;;;;16.27;6.87;;;;;;;-8.39;94.07;98988.28;5131972;27;20359;-66
2022/01/24 02:06:12;;;;;;;17.53;7.50;;;;;;;-8.42;93.81;98984.81;5131996;27;20285;-66
2022/01/24 02:08:41;;;;;;;18.63;8.33;;;;;;;-8.51;93.78;98985.44;5131547;27;20337;-65
2022/01/24 02:11:11;;;;;;;18.63;6.83;;;;;;;-8.46;94.06;98990.66;5114610;27;20284;-66
2022/01/24 02:13:38;;;;;;;17.37;6.47;;;;;;;-8.41;94.00;98995.06;5132237;27;20288;-65
2022/01/24 02:16:13;;;;;;;19.63;7.03;;;;;;;-8.32;93.96;98991.88;5132316;27;20776;-66
2022/01/24 02:18:47;;;;;;;17.67;7.57;;;;;;;-8.21;93.92;98987.91;5132226;27;20338;-66
2022/01/24 02:21:28;;;;;;;14.40;6.53;;;;;;;-8.14;93.65;98998.28;5130555;27;20315;-65
2022/01/24 02:23:58;;;;;;;15.53;7.23;;;;;;;-8.11;93.72;98997.47;5133541;27;20810;-65
2022/01/24 02:26:25;;;;;;;12.03;6.07;;;;;;;-8.14;93.56;98997.44;5132289;27;20345;-65
2022/01/24 02:29:03;;;;;;;15.30;5.83;;;;;;;-8.23;93.39;98999.75;5132417;27;20285;-65
2022/01/24 02:34:28;;;;;;;16.17;7.30;;;;;;;-8.22;93.55;99006.56;5132178;27;20292;-65
2022/01/24 02:36:59;;;;;;;17.20;7.73;;;;;;;-8.18;93.46;99014.34;5131604;27;20349;-66
2022/01/24 02:39:44;;;;;;;16.03;6.43;;;;;;;-8.26;92.94;99008.19;5132071;27;20847;-66
2022/01/24 02:50:45;;;;;;;19.33;7.47;;;;;;;-8.45;94.09;99008.56;5131281;27;20291;-66
2022/01/24 02:53:13;;;;;;;20.77;7.43;;;;;;;-8.36;94.38;99002.84;5113710;28;20773;-65
2022/01/24 02:55:41;;;;;;;23.60;7.00;;;;;;;-8.35;94.20;99004.56;5131506;27;20289;-65
2022/01/24 02:58:09;;;;;;;18.60;8.00;;;;;;;-8.31;94.25;99006.34;5131675;27;20280;-66
2022/01/24 03:00:38;;;;;;;16.40;7.13;;;;;;;-8.30;93.81;98997.88;5131468;27;20316;-66
2022/01/24 03:03:05;;;;;;;15.57;7.47;;;;;;;-8.33;93.86;98993.56;5131701;27;20392;-65
2022/01/24 03:05:33;;;;;;;16.77;6.53;;;;;;;-8.31;93.95;98999.56;5131296;27;20764;-65
2022/01/24 03:08:00;;;;;;;14.03;7.33;;;;;;;-8.35;93.30;99002.00;5131187;28;20361;-65
2022/01/24 03:10:35;;;;;;;13.47;6.50;;;;;;;-8.38;93.38;99005.34;5131451;28;20744;-65
2022/01/24 03:13:18;;;;;;;18.43;6.97;;;;;;;-8.25;93.63;99007.38;5131064;28;20283;-65
2022/01/24 03:15:46;;;;;;;15.77;6.70;;;;;;;-8.18;93.21;99003.28;5130897;28;20295;-65
2022/01/24 03:18:13;;;;;;;13.83;5.37;;;;;;;-8.23;92.60;99009.97;5131670;27;20294;-66
2022/01/24 03:20:41;;;;;;;18.33;8.20;;;;;;;-8.19;92.83;99004.09;5136802;27;20285;-65
2022/01/24 03:23:08;;;;;;;15.90;7.20;;;;;;;-8.09;92.75;99000.91;5135603;27;20787;-65
2022/01/24 03:25:37;;;;;;;14.40;6.93;;;;;;;-8.09;92.67;99008.56;5135452;27;20342;-65
2022/01/24 03:28:05;;;;;;;15.27;6.47;;;;;;;-7.99;92.68;99006.28;5135698;27;20285;-65
2022/01/24 03:30:32;;;;;;;18.73;7.13;;;;;;;-7.95;92.20;99000.41;5137003;27;20769;-66
2022/01/24 03:33:00;;;;;;;17.23;7.07;;;;;;;-7.94;91.78;99007.25;5116169;27;20279;-66
2022/01/24 03:35:28;;;;;;;20.37;7.47;;;;;;;-7.93;91.69;99011.53;5135684;27;20292;-65
2022/01/24 03:37:55;;;;;;;21.50;9.43;;;;;;;-8.02;91.69;99011.28;5135274;27;20317;-65
2022/01/24 03:40:22;;;;;;;16.87;8.47;;;;;;;-8.06;92.06;99012.06;5116993;27;20289;-66
2022/01/24 03:42:50;;;;;;;17.00;7.30;;;;;;;-8.03;91.81;99024.06;5135296;27;20706;-65
2022/01/24 03:45:24;;;;;;;19.70;9.00;;;;;;;-8.06;91.66;99026.53;5137348;27;20730;-65
2022/01/24 03:48:04;;;;;;;19.40;7.80;;;;;;;-8.01;91.91;99025.81;5136177;27;20285;-64
2022/01/24 03:50:31;;;;;;;20.10;7.53;;;;;;;-8.06;91.15;99027.38;5134919;27;20293;-64
2022/01/24 03:52:58;;;;;;;14.03;6.50;;;;;;;-8.11;91.43;99023.88;5118076;27;20784;-66
2022/01/24 03:55:25;;;;;;;18.40;7.60;;;;;;;-8.21;91.57;99023.63;5135024;27;20295;-65
2022/01/24 03:57:53;;;;;;;15.50;6.63;;;;;;;-8.25;91.81;99027.78;5135795;27;20288;-66
2022/01/24 04:00:21;;;;;;;18.40;6.17;;;;;;;-8.22;92.07;99030.41;5135571;27;20387;-65
2022/01/24 04:02:48;;;;;;;20.80;8.30;;;;;;;-8.15;92.05;99044.19;5135490;27;20300;-65
2022/01/24 04:05:15;;;;;;;20.67;8.93;;;;;;;-7.99;92.20;99047.13;5135761;27;20287;-65
2022/01/24 04:07:42;;;;;;;22.67;8.97;;;;;;;-7.93;91.85;99047.28;5135427;27;20293;-65
2022/01/24 04:10:10;;;;;;;16.50;6.67;;;;;;;-8.03;91.08;99044.47;5135965;27;20745;-65
2022/01/24 04:12:40;;;;;;;15.73;6.23;;;;;;;-8.15;91.25;99047.59;5136305;27;21141;-65
2022/01/24 04:15:14;;;;;;;17.87;7.77;;;;;;;-8.21;91.29;99046.59;5135228;27;20427;-65
2022/01/24 04:17:44;;;;;;;22.57;8.50;;;;;;;-8.22;91.48;99047.41;5117643;27;20276;-65
2022/01/24 04:22:59;;;;;;;18.50;7.47;;;;;;;-7.97;90.89;99052.25;5134984;27;20312;-64
2022/01/24 04:25:26;;;;;;;15.77;7.77;;;;;;;-8.01;90.56;99047.91;5135570;27;20309;-65
2022/01/24 04:27:55;;;;;;;15.63;6.37;;;;;;;-8.11;90.90;99046.84;5134997;27;20320;-64
2022/01/24 04:30:24;;;;;;;16.43;6.97;;;;;;;-8.06;90.71;99058.00;5133553;27;20281;-65
2022/01/24 04:32:51;;;;;;;16.30;6.90;;;;;;;-8.04;90.96;99063.16;5134415;27;20310;-65
2022/01/24 04:35:18;;;;;;;16.53;7.03;;;;;;;-8.05;90.68;99072.53;5134494;27;20349;-65
2022/01/24 04:37:47;;;;;;;14.33;7.07;;;;;;;-8.01;90.71;99060.69;5135564;27;20289;-65
2022/01/24 04:40:14;;;;;;;15.67;7.77;;;;;;;-8.07;90.11;99058.84;5133097;27;20281;-65
2022/01/24 04:42:48;;;;;;;15.70;6.67;;;;;;;-8.11;90.71;99057.06;5134761;27;20296;-65
2022/01/24 04:45:35;;;;;;;19.00;8.67;;;;;;;-8.07;90.58;99063.94;5134816;27;20280;-66
2022/01/24 04:51:05;;;;;;;19.10;8.47;;;;;;;-8.10;91.10;99068.97;5134216;27;20342;-66
2022/01/24 04:56:16;;;;;;;;;;;;;;;-8.08;91.74;99069.00;5133522;27;20043;-66
2022/01/24 04:58:43;;;;;;;19.70;8.07;;;;;;;-8.01;91.55;99079.44;5134595;27;20346;-65
2022/01/24 05:01:10;;;;;;;17.97;9.10;;;;;;;-8.11;91.21;99081.72;5133794;27;20281;-66
2022/01/24 05:03:38;;;;;;;18.43;7.37;;;;;;;-8.12;92.25;99072.34;5134015;27;20281;-66
2022/01/24 05:06:08;;;;;;;16.33;7.57;;;;;;;-8.12;92.10;99088.53;5134202;27;20384;-65
2022/01/24 05:08:35;;;;;;;18.00;6.93;;;;;;;-8.09;92.50;99080.94;5134197;27;20325;-65
2022/01/24 05:11:07;;;;;;;19.10;8.13;;;;;;;-8.13;92.21;99086.78;5135305;27;20821;-65
2022/01/24 05:24:39;;;;;;;21.50;7.57;;;;;;;-8.15;92.36;99088.44;5065922;27;20294;-65
2022/01/24 05:27:07;;;;;;;17.17;6.70;;;;;;;-8.12;92.76;99097.88;5133727;27;20371;-66
2022/01/24 05:29:34;;;;;;;21.00;8.27;;;;;;;-8.03;92.79;99093.81;5133276;27;20293;-65
2022/01/24 05:32:01;;;;;;;20.17;8.17;;;;;;;-8.03;92.40;99106.59;5115234;27;20775;-66
2022/01/24 05:34:29;;;;;;;21.87;7.97;;;;;;;-8.04;92.27;99102.31;5133566;27;20284;-66
2022/01/24 05:36:56;;;;;;;12.03;6.03;;;;;;;-8.15;91.71;99101.22;5132750;27;21035;-67
2022/01/24 05:39:23;;;;;;;11.27;3.90;;;;;;;-8.14;90.94;99102.94;5133697;27;20357;-65
2022/01/24 05:41:50;;;;;;;17.37;7.20;;;;;;;-8.08;91.04;99114.97;5133492;27;20285;-65
2022/01/24 05:44:17;;;;;;;16.60;7.83;;;;;;;-7.99;90.99;99112.66;5133820;27;20726;-66
2022/01/24 05:46:44;;;;;;;20.17;7.70;;;;;;;-7.90;91.27;99110.31;5133465;27;20285;-65
2022/01/24 05:49:11;;;;;;;21.03;7.13;;;;;;;-8.04;90.43;99126.97;5132308;27;20324;-64
2022/01/24 05:51:39;;;;;;;19.23;9.37;;;;;;;-8.07;90.74;99126.88;5133771;27;20337;-65
2022/01/24 05:54:07;;;;;;;13.13;5.97;;;;;;;-8.07;90.60;99129.44;5133468;27;20295;-66
2022/01/24 05:56:35;;;;;;;17.83;7.97;;;;;;;-8.02;90.84;99128.72;5133811;27;20376;-65
2022/01/24 05:59:02;;;;;;;20.47;8.57;;;;;;;-7.94;90.93;99119.59;5133706;27;20296;-65
2022/01/24 06:01:29;;;;;;;21.77;7.60;;;;;;;-7.90;90.71;99131.63;5133808;27;20290;-65
2022/01/24 06:03:56;;;;;;;22.13;9.53;;;;;;;-7.92;90.78;99125.59;5133661;27;20287;-65
2022/01/24 06:06:23;;;;;;;23.60;9.37;;;;;;;-7.91;91.23;99127.31;5133952;27;20746;-65
2022/01/24 06:08:51;;;;;;;20.50;8.87;;;;;;;-7.87;91.39;99135.94;5132730;27;20289;-67
2022/01/24 06:11:20;;;;;;;19.20;9.97;;;;;;;-7.82;91.11;99135.22;5131608;27;20299;-66
2022/01/24 06:13:50;;;;;;;23.63;10.17;;;;;;;-7.85;91.47;99142.81;5133943;27;20296;-65
2022/01/24 06:16:17;;;;;;;20.50;9.03;;;;;;;-7.91;91.85;99146.91;5133284;27;21006;-66
2022/01/24 06:18:45;;;;;;;21.83;10.23;;;;;;;-7.91;91.61;99142.63;5133657;27;20293;-65
2022/01/24 06:21:12;;;;;;;21.13;10.33;;;;;;;-7.82;92.04;99142.00;5132686;27;20281;-65
2022/01/24 06:23:39;;;;;;;20.67;9.57;;;;;;;-7.88;91.92;99142.72;5114819;27;20285;-66
2022/01/24 06:26:10;;;;;;;22.83;9.70;;;;;;;-7.77;92.23;99146.41;5133036;27;20749;-65
2022/01/24 06:28:37;;;;;;;20.63;8.67;;;;;;;-7.69;91.98;99150.03;5130015;27;20327;-65
2022/01/24 06:31:04;;;;;;;20.13;8.93;;;;;;;-7.69;91.23;99150.03;5132238;27;20306;-66
2022/01/24 06:33:31;;;;;;;17.77;8.40;;;;;;;-7.64;91.64;99153.56;5113674;27;20795;-66
2022/01/24 06:35:58;;;;;;;21.40;9.97;;;;;;;-7.64;91.09;99153.56;5130646;27;20307;-66
2022/01/24 06:38:25;;;;;;;19.40;9.20;;;;;;;-7.58;91.35;99151.16;5132020;27;20658;-65
2022/01/24 06:40:52;;;;;;;23.13;9.03;;;;;;;-7.48;91.02;99150.56;5132251;27;20761;-66
2022/01/24 06:43:21;;;;;;;28.37;11.03;;;;;;;-7.43;90.85;99146.44;5131947;27;20292;-65
2022/01/24 06:45:48;;;;;;;21.40;10.30;;;;;;;-7.47;90.50;99152.28;5133192;27;20780;-65
2022/01/24 06:48:15;;;;;;;27.77;9.63;;;;;;;-7.35;90.80;99150.03;5133595;27;20384;-66
2022/01/24 06:50:42;;;;;;;24.97;10.03;;;;;;;-7.34;90.35;99156.88;5114694;27;20285;-66
2022/01/24 06:53:09;;;;;;;26.20;9.47;;;;;;;-7.38;90.26;99157.63;5132939;27;20319;-67
2022/01/24 06:55:36;;;;;;;27.57;11.23;;;;;;;-7.46;89.73;99145.47;5109124;27;20430;-65
2022/01/24 06:58:03;;;;;;;25.83;10.87;;;;;;;-7.50;90.23;99134.34;5133635;27;20633;-65
2022/01/24 07:00:32;;;;;;;53.27;26.87;;;;;;;-7.55;89.84;99138.47;5114456;27;20342;-63
2022/01/24 07:02:59;;;;;;;29.70;13.87;;;;;;;-7.26;90.70;99136.56;5114618;28;20296;-65
2022/01/24 07:05:28;;;;;;;21.27;9.07;;;;;;;-7.14;90.20;99152.22;5132549;27;20280;-65
2022/01/24 07:07:56;;;;;;;18.93;8.43;;;;;;;-7.07;89.41;99151.53;5132911;27;20292;-65
2022/01/24 07:10:24;;;;;;;21.87;10.20;;;;;;;-7.16;88.86;99149.63;5133266;28;20288;-66
2022/01/24 07:12:51;;;;;;;18.60;9.13;;;;;;;-7.12;88.81;99143.75;5132400;28;20358;-66
2022/01/24 07:15:20;;;;;;;27.43;10.50;;;;;;;-7.12;88.21;99151.41;5132376;28;20332;-65
2022/01/24 07:18:14;;;;;;;17.60;8.33;;;;;;;-7.06;87.80;99149.03;5113783;28;20311;-65
2022/01/24 07:20:41;;;;;;;21.17;8.57;;;;;;;-7.00;87.29;99155.97;5127999;28;20645;-66
2022/01/24 07:23:09;;;;;;;22.40;10.13;;;;;;;-6.93;86.06;99152.69;5132744;28;20565;-65
2022/01/24 07:25:36;;;;;;;22.27;8.80;;;;;;;-6.88;86.56;99163.91;5114018;28;20281;-65
2022/01/24 07:28:04;;;;;;;22.77;9.93;;;;;;;-6.75;86.05;99163.31;5132551;28;20424;-65
2022/01/24 07:30:31;;;;;;;22.90;9.60;;;;;;;-6.68;85.18;99165.19;5123198;28;20288;-65
2022/01/24 07:32:59;;;;;;;22.20;10.63;;;;;;;-6.52;85.44;99152.75;5133199;28;20332;-65
2022/01/24 07:35:26;;;;;;;22.27;10.67;;;;;;;-6.45;84.62;99156.28;5132884;28;20736;-65
2022/01/24 07:37:54;;;;;;;22.33;9.67;;;;;;;-6.72;83.82;99156.59;5133237;28;20292;-65
2022/01/24 07:40:22;;;;;;;28.17;11.10;;;;;;;-6.94;84.17;99159.50;5132943;28;20285;-66
2022/01/24 07:42:55;;;;;;;27.43;11.70;;;;;;;-6.93;83.45;99158.69;5131669;28;20284;-65
2022/01/24 07:45:23;;;;;;;;;;;;;;;-6.76;84.33;99161.59;5131485;28;20281;-68
2022/01/24 07:47:51;;;;;;;16.63;8.33;;;;;;;-6.85;84.14;99159.69;5131634;28;20699;-66
2022/01/24 07:50:23;;;;;;;20.23;10.43;;;;;;;-7.06;83.64;99161.81;5132607;28;20404;-68
2022/01/24 07:52:50;;;;;;;17.07;8.30;;;;;;;-7.13;83.48;99164.16;5129716;28;20385;-67
2022/01/24 07:55:17;;;;;;;19.17;7.87;;;;;;;-7.17;83.15;99170.91;5131482;28;20368;-68
2022/01/24 07:57:44;;;;;;;18.57;9.07;;;;;;;-7.21;83.56;99173.38;5131548;28;20757;-66
2022/01/24 08:00:12;;;;;;;22.13;10.47;;;;;;;-7.28;83.66;99169.81;5128694;28;20300;-66
2022/01/24 08:02:39;;;;;;;19.80;8.53;;;;;;;-6.64;84.38;99160.16;5131558;28;20285;-64
2022/01/24 08:05:07;;;;;;;20.17;9.00;;;;;;;-6.09;82.17;99155.31;5130935;27;20292;-66
2022/01/24 08:07:36;;;;;;;22.63;9.80;;;;;;;-5.78;81.02;99166.13;5135351;27;20698;-66
2022/01/24 08:10:04;;;;;;;15.33;7.67;;;;;;;-5.52;79.29;99167.44;5135675;27;20285;-65
2022/01/24 08:12:31;;;;;;;14.73;7.03;;;;;;;-5.52;77.43;99165.75;5135642;27;20662;-66
2022/01/24 08:15:00;;;;;;;13.83;5.83;;;;;;;-5.31;76.13;99160.94;5136140;27;20043;-66
2022/01/24 08:17:27;;;;;;;14.07;6.43;;;;;;;-5.11;74.43;99162.16;5117944;27;20039;-67
2022/01/24 08:19:54;;;;;;;19.40;7.90;;;;;;;-5.28;72.78;99166.13;5135742;27;20054;-66
2022/01/24 08:22:21;;;;;;;21.87;8.47;;;;;;;-5.29;73.01;99160.97;5116115;27;20035;-66
2022/01/24 08:24:50;;;;;;;18.33;8.07;;;;;;;-5.04;72.67;99174.22;5135789;27;20074;-65
2022/01/24 08:27:18;;;;;;;19.27;7.57;;;;;;;-4.61;71.29;99165.44;5117250;27;20042;-68
2022/01/24 08:29:47;;;;;;;17.57;8.30;;;;;;;-4.58;70.77;99165.50;5135094;27;20084;-65
2022/01/24 08:32:14;;;;;;;18.97;8.53;;;;;;;-4.68;70.83;99163.63;5135454;27;20436;-66
2022/01/24 08:34:42;;;;;;;15.97;7.10;;;;;;;-4.82;70.14;99180.53;5136261;27;20054;-66
2022/01/24 08:37:09;;;;;;;15.80;6.87;;;;;;;-4.87;71.13;99174.47;5135631;27;20035;-66
2022/01/24 08:39:36;;;;;;;18.23;8.83;;;;;;;-4.79;71.66;99168.63;5135351;27;20333;-67
2022/01/24 08:42:14;;;;;;;14.83;7.03;;;;;;;-4.60;71.25;99174.84;5135394;27;20390;-65
2022/01/24 08:47:29;;;;;;;17.13;6.97;;;;;;;-4.40;69.34;99173.41;5132407;27;20391;-65
2022/01/24 08:49:57;;;;;;;23.33;10.60;;;;;;;-3.92;69.22;99161.16;5135423;27;20050;-66
2022/01/24 08:52:25;;;;;;;14.83;7.13;;;;;;;-4.19;68.73;99163.41;5134955;27;20039;-66
2022/01/24 08:54:52;;;;;;;19.63;8.20;;;;;;;-4.54;70.01;99180.94;5134519;27;20100;-66
2022/01/24 08:57:25;;;;;;;20.00;9.50;;;;;;;-4.80;71.59;99178.88;5134906;27;20066;-66
2022/01/24 08:59:52;;;;;;;19.70;8.45;;;;;;;-4.86;72.20;99186.47;5135285;27;20130;-66
2022/01/24 09:02:20;;;;;;;24.00;9.73;;;;;;;-4.88;72.14;99177.88;5133449;27;20491;-67
2022/01/24 09:04:47;;;;;;;21.37;9.13;;;;;;;-5.00;72.09;99172.56;5134047;27;20043;-67
2022/01/24 09:07:17;;;;;;;23.93;9.40;;;;;;;-5.17;72.53;99166.34;5133881;27;20472;-70
2022/01/24 09:09:44;;;;;;;20.93;9.40;;;;;;;-5.18;73.35;99183.41;5135056;27;20039;-70
2022/01/24 09:12:12;;;;;;;25.37;9.60;;;;;;;-5.06;72.84;99172.50;5115968;27;20872;-70
2022/01/24 09:14:43;;;;;;;23.13;9.53;;;;;;;-4.95;72.58;99164.09;5133472;27;20043;-69
2022/01/24 09:17:10;;;;;;;22.70;8.87;;;;;;;-4.82;72.48;99167.69;5133612;27;20039;-68
2022/01/24 09:19:38;;;;;;;16.37;8.13;;;;;;;-5.21;71.47;99167.09;5133614;27;20074;-69
2022/01/24 09:22:06;;;;;;;19.83;8.90;;;;;;;-5.59;73.18;99157.91;5124729;27;20072;-71
2022/01/24 09:24:33;;;;;;;13.10;6.63;;;;;;;-5.69;73.78;99161.16;5131513;27;20118;-72
2022/01/24 09:27:00;;;;;;;15.27;6.73;;;;;;;-5.73;74.22;99165.38;5113394;27;20031;-72
2022/01/24 09:29:28;;;;;;;13.87;6.50;;;;;;;-5.79;73.89;99177.22;5133028;27;20088;-71
2022/01/24 09:31:56;;;;;;;15.80;7.73;;;;;;;-6.00;73.29;99170.84;5133166;27;20038;-71
2022/01/24 09:34:24;;;;;;;16.80;7.10;;;;;;;-6.02;74.72;99166.53;5134065;27;20034;-68
2022/01/24 09:36:52;;;;;;;13.83;7.03;;;;;;;-5.67;73.84;99156.94;5133613;27;20162;-70
2022/01/24 09:39:22;;;;;;;18.67;6.27;;;;;;;-5.62;72.86;99158.72;5132740;27;20297;-70
2022/01/24 09:41:49;;;;;;;16.97;8.47;;;;;;;-5.68;72.91;99168.03;5136786;27;20043;-71
2022/01/24 09:44:20;;;;;;;17.77;7.57;;;;;;;-5.59;72.14;99163.91;5132634;27;20043;-71
2022/01/24 09:46:47;;;;;;;12.57;6.77;;;;;;;-5.53;71.96;99158.88;5114390;27;20114;-70
2022/01/24 09:49:16;;;;;;;18.27;8.60;;;;;;;-5.32;72.00;99155.84;5133289;27;20047;-71
2022/01/24 09:51:44;;;;;;;16.03;7.53;;;;;;;-5.19;71.13;99156.03;5131604;27;20039;-67
2022/01/24 09:54:13;;;;;;;16.00;7.27;;;;;;;-5.24;71.15;99151.69;5132275;27;20368;-65
2022/01/24 09:56:40;;;;;;;15.67;7.47;;;;;;;-5.39;70.99;99151.44;5131305;27;20039;-71
2022/01/24 09:59:08;;;;;;;12.00;5.97;;;;;;;-5.58;70.71;99145.13;5131475;27;20045;-67
2022/01/24 10:01:35;;;;;;;14.27;6.83;;;;;;;-5.31;70.98;99154.97;5128540;27;20613;-67
2022/01/24 10:04:15;;;;;;;13.93;5.37;;;;;;;-5.19;69.98;99155.16;5129926;27;20551;-67
2022/01/24 10:07:03;;;;;;;11.60;5.37;;;;;;;-4.94;69.47;99152.13;5129281;27;20046;-67
2022/01/24 10:09:33;;;;;;;12.23;6.03;;;;;;;-4.78;69.42;99149.81;5113853;27;20043;-67
2022/01/24 10:12:28;;;;;;;12.67;6.70;;;;;;;-4.71;69.20;99140.47;5128398;27;20043;-68
2022/01/24 10:17:42;;;;;;;17.60;7.97;;;;;;;-4.92;68.05;99132.47;5112453;27;20092;-68
2022/01/24 10:20:23;;;;;;;13.90;6.60;;;;;;;-4.83;68.41;99130.06;5130848;27;20376;-66
2022/01/24 10:23:11;;;;;;;9.33;5.20;;;;;;;-4.63;66.98;99138.88;5130861;27;20444;-68
2022/01/24 10:25:53;;;;;;;10.00;5.07;;;;;;;-4.77;65.53;99135.25;5130904;27;20046;-67
2022/01/24 10:28:26;;;;;;;14.90;5.87;;;;;;;-4.98;66.25;99132.41;5129726;27;20043;-68
2022/01/24 10:31:04;;;;;;;8.88;5.07;;;;;;;-4.96;66.79;99128.13;5130308;27;20487;-67
2022/01/24 10:33:51;;;;;;;9.07;4.97;;;;;;;-4.92;66.39;99120.50;5130730;27;20528;-68
2022/01/24 10:36:28;;;;;;;8.30;4.83;;;;;;;-4.64;67.28;99117.50;5130723;27;20047;-67
2022/01/24 10:39:22;;;;;;;14.60;5.57;;;;;;;-5.03;66.90;99123.75;5128630;27;20051;-68
2022/01/24 10:42:27;;;;;;;10.40;6.27;;;;;;;-4.98;66.85;99114.44;5130738;27;20111;-67
2022/01/24 10:44:55;;;;;;;;;;;;;;;-4.44;66.82;99108.31;5128046;27;20095;-67
2022/01/24 10:47:26;;;;;;;16.47;6.70;;;;;;;-4.64;66.55;99111.47;5130668;27;20386;-67
2022/01/24 10:49:54;;;;;;;10.40;5.07;;;;;;;-4.92;66.09;99107.69;5129050;27;20051;-64
2022/01/24 10:52:23;;;;;;;13.03;6.20;;;;;;;-4.86;67.54;99096.63;5130087;27;20053;-64
2022/01/24 10:54:54;;;;;;;15.87;5.83;;;;;;;-4.76;66.92;99096.78;5130527;27;20047;-65
2022/01/24 10:57:23;;;;;;;13.57;7.13;;;;;;;-5.23;67.05;99108.09;5130134;27;20058;-64
2022/01/24 10:59:51;;;;;;;15.00;6.93;;;;;;;-5.10;68.30;99093.72;5130856;27;20074;-70
2022/01/24 11:02:18;;;;;;;13.87;6.50;;;;;;;-4.74;67.65;99100.22;5130117;27;20046;-65
2022/01/24 11:04:45;;;;;;;12.37;5.47;;;;;;;-4.94;68.01;99090.56;5129826;27;20100;-65
2022/01/24 11:07:12;;;;;;;12.97;6.23;;;;;;;-5.20;66.55;99092.72;5129932;27;20403;-65
2022/01/24 11:09:41;;;;;;;11.30;6.27;;;;;;;-5.25;68.56;99086.69;5129761;27;20138;-65
2022/01/24 11:12:12;;;;;;;13.67;5.50;;;;;;;-5.08;67.77;99086.94;5129777;27;20096;-64
2022/01/24 11:14:41;;;;;;;13.50;6.00;;;;;;;-4.89;68.06;99081.19;5129882;28;20042;-64
2022/01/24 11:17:12;;;;;;;13.63;5.77;;;;;;;-4.90;67.46;99079.47;5128824;27;20039;-65
2022/01/24 11:19:43;;;;;;;13.60;6.63;;;;;;;-4.82;69.00;99085.56;5129902;28;20039;-64
2022/01/24 11:22:19;;;;;;;12.67;5.80;;;;;;;-4.75;67.90;99087.38;5130089;28;20438;-64
2022/01/24 11:24:53;;;;;;;15.00;7.27;;;;;;;-5.10;67.64;99086.03;5128841;28;20134;-65
2022/01/24 11:27:22;;;;;;;14.80;6.20;;;;;;;-5.37;68.55;99085.63;5129444;28;20039;-64
2022/01/24 11:29:52;;;;;;;14.17;6.27;;;;;;;-5.32;69.42;99081.47;5130065;28;20429;-64
2022/01/24 11:32:27;;;;;;;15.90;7.17;;;;;;;-5.22;70.17;99068.78;5129693;28;20043;-64
2022/01/24 11:34:56;;;;;;;15.97;6.77;;;;;;;-5.28;69.60;99078.09;5125814;28;20439;-66
2022/01/24 11:37:36;;;;;;;13.27;6.73;;;;;;;-5.15;69.70;99079.97;5129449;28;20608;-72
2022/01/24 11:40:08;;;;;;;18.20;7.57;;;;;;;-5.35;69.91;99082.25;5132137;27;20134;-65
2022/01/24 11:42:37;;;;;;;16.03;6.23;;;;;;;-5.10;70.31;99078.34;5132967;27;20493;-64
2022/01/24 11:45:11;;;;;;;13.63;6.17;;;;;;;-4.86;71.85;99068.41;5133362;27;20051;-64
2022/01/24 11:47:39;;;;;;;12.93;7.87;;;;;;;-4.28;74.62;99065.69;5133502;27;20035;-64
2022/01/24 11:50:31;;;;;;;12.87;6.27;;;;;;;-4.66;71.03;99070.38;5134064;27;20522;-69
2022/01/24 11:52:59;;;;;;;12.10;5.60;;;;;;;-5.23;70.15;99076.44;5132488;27;20046;-70
2022/01/24 11:55:34;;;;;;;16.13;7.53;;;;;;;-5.31;70.08;99078.06;5134057;27;20046;-64
2022/01/24 11:58:04;;;;;;;14.10;7.37;;;;;;;-5.25;69.86;99079.00;5133746;27;20043;-65
2022/01/24 12:00:38;;;;;;;14.37;7.33;;;;;;;-5.63;69.81;99074.13;5134061;27;20683;-65
2022/01/24 12:03:16;;;;;;;13.40;6.40;;;;;;;-5.64;71.38;99085.22;5133562;27;20043;-64
2022/01/24 12:05:45;;;;;;;15.50;6.17;;;;;;;-5.54;71.15;99093.06;5133738;27;20089;-65
2022/01/24 12:08:22;;;;;;;14.60;6.63;;;;;;;-5.21;71.02;99097.84;5133408;27;20376;-66
2022/01/24 12:10:51;;;;;;;13.87;6.10;;;;;;;-5.16;70.67;99081.66;5134950;27;20508;-64
2022/01/24 12:13:26;;;;;;;17.23;7.30;;;;;;;-5.20;70.15;99086.75;5133274;27;20035;-64
2022/01/24 12:16:02;;;;;;;17.00;7.60;;;;;;;-5.24;70.82;99088.41;5131855;27;20507;-69
2022/01/24 12:19:01;;;;;;;14.87;6.13;;;;;;;-5.44;70.25;99087.25;5133816;27;20065;-63
2022/01/24 12:21:34;;;;;;;15.13;6.43;;;;;;;-5.46;70.52;99088.06;5053480;28;20044;-62
2022/01/24 12:24:05;;;;;;;13.97;5.67;;;;;;;-5.81;70.19;99078.09;5122420;27;20067;-62
2022/01/24 12:26:37;;;;;;;15.90;6.50;;;;;;;-5.78;71.76;99074.75;5129092;27;20057;-62
2022/01/24 12:29:09;;;;;;;14.30;7.10;;;;;;;-5.54;71.92;99084.53;5133888;27;20287;-63
2022/01/24 12:31:44;;;;;;;16.63;7.25;;;;;;;-5.64;71.51;99074.97;5132555;27;20121;-64
2022/01/24 12:34:28;;;;;;;17.40;7.73;;;;;;;-5.90;71.00;99062.59;5131077;27;20040;-62
2022/01/24 12:37:07;;;;;;;21.33;7.72;;;;;;;-5.81;70.99;99067.84;5131120;27;20126;-64
2022/01/24 12:39:40;;;;;;;14.60;5.70;;;;;;;-6.03;70.75;99070.91;5132831;27;20124;-62
2022/01/24 12:42:14;;;;;;;23.58;8.05;;;;;;;-6.14;70.53;99059.63;5132811;27;20047;-63
2022/01/24 12:47:31;;;;;;;17.13;7.13;;;;;;;-5.64;70.70;99051.91;5133402;27;20051;-61
2022/01/24 12:49:58;;;;;;;12.93;6.17;;;;;;;-5.58;69.42;99064.78;5132948;27;20065;-64
2022/01/24 12:52:26;;;;;;;12.03;6.37;;;;;;;-5.54;69.72;99064.88;5132528;27;20364;-62
2022/01/24 12:54:55;;;;;;;12.47;5.50;;;;;;;-5.41;68.96;99048.84;5132385;27;20054;-62
2022/01/24 12:57:29;;;;;;;12.97;6.37;;;;;;;-5.37;68.98;99042.91;5132934;27;20084;-63